createdAt,value
2018-11-10T00:00:20.601Z,100966.09
2018-11-10T00:02:49.828Z,100958.64
2018-11-10T00:05:19.376Z,100950.84
2018-11-10T00:07:47.836Z,100947.28
2018-11-10T00:10:16.987Z,100944.09
2018-11-10T00:12:45.872Z,100942.11
2018-11-10T00:15:15.011Z,100934.67
2018-11-10T00:17:43.438Z,100929.86
2018-11-10T00:20:12.100Z,100927.98
2018-11-10T00:22:41.292Z,100924.63
2018-11-10T00:25:11.476Z,100929.55
2018-11-10T00:27:40.456Z,100941.09
2018-11-10T00:30:10.755Z,100938.05
2018-11-10T00:32:39.173Z,100938.58
2018-11-10T00:35:07.916Z,100929.22
2018-11-10T00:37:36.423Z,100934.02
2018-11-10T00:40:05.552Z,100940.30
2018-11-10T00:42:34.013Z,100946.91
2018-11-10T00:45:02.436Z,100939.61
2018-11-10T00:47:30.916Z,100939.61
2018-11-10T00:49:59.339Z,100936.55
2018-11-10T00:52:27.793Z,100941.14
2018-11-10T00:54:56.220Z,100943.23
2018-11-10T00:57:24.693Z,100943.40
2018-11-10T00:59:53.105Z,100947.80
2018-11-10T01:02:21.585Z,100941.52
2018-11-10T01:04:50.009Z,100928.63
2018-11-10T01:07:18.470Z,100921.30
2018-11-10T01:09:46.902Z,100918.75
2018-11-10T01:12:15.343Z,100924.92
2018-11-10T01:14:43.768Z,100924.25
2018-11-10T01:17:12.232Z,100910.64
2018-11-10T01:19:40.652Z,100911.36
2018-11-10T01:22:09.142Z,100906.98
2018-11-10T01:24:37.573Z,100907.38
2018-11-10T01:27:06.273Z,100909.44
2018-11-10T01:29:34.685Z,100903.16
2018-11-10T01:32:03.169Z,100907.38
2018-11-10T01:34:31.586Z,100901.42
2018-11-10T01:37:00.033Z,100891.17
2018-11-10T01:39:28.472Z,100888.45
2018-11-10T01:41:56.908Z,100884.00
2018-11-10T01:44:25.310Z,100885.04
2018-11-10T01:46:53.756Z,100877.92
2018-11-10T01:49:22.172Z,100889.30
2018-11-10T01:51:50.737Z,100876.55
2018-11-10T01:54:19.188Z,100868.24
2018-11-10T01:56:47.634Z,100865.20
2018-11-10T01:59:16.049Z,100866.56
2018-11-10T02:01:44.536Z,100864.33
2018-11-10T02:04:13.469Z,100854.81
2018-11-10T02:06:41.948Z,100845.17
2018-11-10T02:09:11.067Z,100853.19
2018-11-10T02:11:39.623Z,100860.19
2018-11-10T02:14:08.146Z,100866.47
2018-11-10T02:16:36.563Z,100863.75
2018-11-10T02:19:05.462Z,100853.55
2018-11-10T02:21:33.916Z,100863.92
2018-11-10T02:24:02.370Z,100860.87
2018-11-10T02:26:30.817Z,100861.92
2018-11-10T02:28:59.284Z,100857.00
2018-11-10T02:31:27.792Z,100849.01
2018-11-10T02:33:56.252Z,100851.73
2018-11-10T02:36:24.672Z,100845.12
2018-11-10T02:38:53.206Z,100845.30
2018-11-10T02:41:21.577Z,100841.73
2018-11-10T02:43:50.046Z,100838.70
2018-11-10T02:46:18.478Z,100836.81
2018-11-10T02:48:46.917Z,100831.06
2018-11-10T02:51:15.332Z,100826.66
2018-11-10T02:53:43.788Z,100823.59
2018-11-10T02:56:12.202Z,100816.16
2018-11-10T02:58:40.647Z,100810.04
2018-11-10T03:01:09.088Z,100817.68
2018-11-10T03:03:37.550Z,100808.69
2018-11-10T03:06:06.005Z,100801.88
2018-11-10T03:08:34.517Z,100797.16
2018-11-10T03:11:02.936Z,100798.05
2018-11-10T03:13:31.381Z,100803.67
2018-11-10T03:15:59.824Z,100799.27
2018-11-10T03:18:28.260Z,100798.28
2018-11-10T03:20:56.684Z,100794.20
2018-11-10T03:23:25.129Z,100795.61
2018-11-10T03:25:53.565Z,100791.06
2018-11-10T03:28:21.973Z,100782.07
2018-11-10T03:30:50.445Z,100786.47
2018-11-10T03:33:18.859Z,100771.52
2018-11-10T03:35:47.316Z,100767.43
2018-11-10T03:38:15.732Z,100767.11
2018-11-10T03:40:44.230Z,100762.52
2018-11-10T03:43:12.637Z,100760.84
2018-11-10T03:45:41.082Z,100768.99
2018-11-10T03:48:09.518Z,100771.71
2018-11-10T03:50:37.969Z,100775.44
2018-11-10T03:53:06.383Z,100762.25
2018-11-10T03:55:34.834Z,100763.25
2018-11-10T03:58:03.245Z,100754.27
2018-11-10T04:00:31.682Z,100754.11
2018-11-10T04:03:00.120Z,100745.31
2018-11-10T04:05:28.580Z,100749.08
2018-11-10T04:07:56.994Z,100746.84
2018-11-10T04:10:25.426Z,100737.69
2018-11-10T04:12:53.857Z,100739.73
2018-11-10T04:15:22.318Z,100741.61
2018-11-10T04:17:50.725Z,100740.94
2018-11-10T04:20:19.161Z,100738.42
2018-11-10T04:22:47.579Z,100741.66
2018-11-10T04:25:16.040Z,100733.52
2018-11-10T04:27:44.436Z,100722.84
2018-11-10T04:30:12.877Z,100724.89
2018-11-10T04:32:41.306Z,100724.56
2018-11-10T04:35:09.824Z,100747.84
2018-11-10T04:37:38.352Z,100721.85
2018-11-10T04:40:07.695Z,100712.13
2018-11-10T04:42:36.114Z,100710.98
2018-11-10T04:45:04.714Z,100710.83
2018-11-10T04:47:33.131Z,100704.92
2018-11-10T04:50:01.573Z,100695.78
2018-11-10T04:52:30.004Z,100695.63
2018-11-10T04:54:58.435Z,100702.26
2018-11-10T04:57:26.857Z,100706.34
2018-11-10T04:59:55.313Z,100719.92
2018-11-10T05:02:23.767Z,100717.52
2018-11-10T05:04:52.202Z,100713.45
2018-11-10T05:07:20.621Z,100714.48
2018-11-10T05:09:49.052Z,100706.34
2018-11-10T05:12:17.467Z,100705.55
2018-11-10T05:14:45.903Z,100698.09
2018-11-10T05:17:14.348Z,100680.27
2018-11-10T05:19:42.780Z,100680.63
2018-11-10T05:22:11.225Z,100683.34
2018-11-10T05:24:39.641Z,100674.47
2018-11-10T05:27:08.080Z,100683.81
2018-11-10T05:29:36.492Z,100681.93
2018-11-10T05:32:04.969Z,100688.00
2018-11-10T05:34:33.398Z,100689.71
2018-11-10T05:37:01.876Z,100687.83
2018-11-10T05:39:30.286Z,100678.84
2018-11-10T05:41:58.746Z,100677.97
2018-11-10T05:44:27.158Z,100671.70
2018-11-10T05:46:55.589Z,100676.81
2018-11-10T05:49:23.992Z,100672.94
2018-11-10T05:51:52.436Z,100670.22
2018-11-10T05:54:20.857Z,100674.61
2018-11-10T05:56:49.285Z,100678.48
2018-11-10T05:59:17.699Z,100672.36
2018-11-10T06:01:46.451Z,100666.61
2018-11-10T06:04:14.869Z,100663.89
2018-11-10T06:06:43.308Z,100662.53
2018-11-10T06:09:12.076Z,100660.45
2018-11-10T06:11:41.084Z,100654.70
2018-11-10T06:14:09.532Z,100659.24
2018-11-10T06:16:37.996Z,100664.47
2018-11-10T06:19:06.811Z,100663.06
2018-11-10T06:21:35.238Z,100656.27
2018-11-10T06:24:03.689Z,100653.17
2018-11-10T06:26:32.093Z,100659.80
2018-11-10T06:29:00.529Z,100652.16
2018-11-10T06:31:29.000Z,100646.84
2018-11-10T06:33:57.546Z,100653.47
2018-11-10T06:36:25.976Z,100655.92
2018-11-10T06:38:54.482Z,100661.81
2018-11-10T06:41:23.041Z,100668.94
2018-11-10T06:43:51.476Z,100669.59
2018-11-10T06:46:22.845Z,100647.98
2018-11-10T06:48:51.292Z,100653.75
2018-11-10T06:51:19.696Z,100653.54
2018-11-10T06:53:48.125Z,100655.11
2018-11-10T06:56:16.532Z,100669.86
2018-11-10T06:58:44.973Z,100662.56
2018-11-10T07:01:13.412Z,100653.16
2018-11-10T07:03:41.837Z,100662.16
2018-11-10T07:06:10.256Z,100667.05
2018-11-10T07:08:38.697Z,100667.16
2018-11-10T07:11:07.114Z,100658.48
2018-11-10T07:13:35.556Z,100653.56
2018-11-10T07:16:03.956Z,100676.50
2018-11-10T07:18:32.455Z,100656.94
2018-11-10T07:21:00.888Z,100662.38
2018-11-10T07:23:29.301Z,100663.42
2018-11-10T07:25:57.746Z,100666.46
2018-11-10T07:28:26.429Z,100671.91
2018-11-10T07:30:54.882Z,100671.59
2018-11-10T07:33:23.308Z,100676.16
2018-11-10T07:35:51.753Z,100694.50
2018-11-10T07:38:20.341Z,100691.58
2018-11-10T07:40:48.775Z,100693.60
2018-11-10T07:43:17.211Z,100689.66
2018-11-10T07:45:45.645Z,100691.86
2018-11-10T07:48:14.045Z,100705.61
2018-11-10T07:50:42.475Z,100688.03
2018-11-10T07:53:10.900Z,100686.50
2018-11-10T07:55:39.359Z,100684.73
2018-11-10T07:58:08.114Z,100687.28
2018-11-10T08:00:36.557Z,100687.45
2018-11-10T08:03:05.223Z,100676.91
2018-11-10T08:05:33.656Z,100686.23
2018-11-10T08:08:02.083Z,100683.52
2018-11-10T08:10:30.544Z,100691.16
2018-11-10T08:12:58.976Z,100685.33
2018-11-10T08:15:27.437Z,100673.54
2018-11-10T08:17:55.875Z,100670.44
2018-11-10T08:20:24.347Z,100651.33
2018-11-10T08:22:52.774Z,100648.01
2018-11-10T08:25:21.213Z,100649.30
2018-11-10T08:27:49.643Z,100642.11
2018-11-10T08:30:18.123Z,100629.16
2018-11-10T08:32:46.569Z,100625.48
2018-11-10T08:35:15.541Z,100622.23
2018-11-10T08:37:43.996Z,100625.27
2018-11-10T08:40:16.752Z,100617.11
2018-11-10T08:42:45.161Z,100625.48
2018-11-10T08:45:14.573Z,100622.69
2018-11-10T08:47:43.662Z,100622.92
2018-11-10T08:50:13.316Z,100616.70
2018-11-10T08:52:42.285Z,100604.19
2018-11-10T08:55:11.753Z,100602.36
2018-11-10T08:57:40.625Z,100597.71
2018-11-10T09:00:10.005Z,100598.07
2018-11-10T09:02:38.517Z,100601.23
2018-11-10T09:05:09.304Z,100601.16
2018-11-10T09:07:37.825Z,100589.52
2018-11-10T09:10:07.750Z,100595.83
2018-11-10T09:12:36.218Z,100592.58
2018-11-10T09:15:05.385Z,100585.03
2018-11-10T09:17:33.812Z,100586.73
2018-11-10T09:20:02.261Z,100593.20
2018-11-10T09:22:30.728Z,100591.75
2018-11-10T09:24:59.277Z,100599.80
2018-11-10T09:27:27.741Z,100605.02
2018-11-10T09:29:56.153Z,100603.14
2018-11-10T09:32:24.588Z,100607.88
2018-11-10T09:34:53.016Z,100611.05
2018-11-10T09:37:21.517Z,100604.55
2018-11-10T09:39:49.948Z,100593.77
2018-11-10T09:42:18.528Z,100595.66
2018-11-10T09:44:46.874Z,100597.64
2018-11-10T09:47:15.337Z,100589.72
2018-11-10T09:49:43.784Z,100594.03
2018-11-10T09:52:12.246Z,100588.30
2018-11-10T09:54:40.796Z,100596.92
2018-11-10T09:57:09.272Z,100596.83
2018-11-10T09:59:37.674Z,100593.61
2018-11-10T10:02:06.610Z,100595.63
2018-11-10T10:04:34.769Z,100591.77
2018-11-10T10:07:03.231Z,100593.04
2018-11-10T10:09:31.681Z,100589.48
2018-11-10T10:12:00.097Z,100596.02
2018-11-10T10:14:28.557Z,100592.97
2018-11-10T10:16:56.969Z,100601.72
2018-11-10T10:19:25.420Z,100624.09
2018-11-10T10:21:53.877Z,100630.20
2018-11-10T10:24:22.345Z,100646.27
2018-11-10T10:26:51.621Z,100668.79
2018-11-10T10:29:20.167Z,100681.64
2018-11-10T10:31:48.605Z,100673.04
2018-11-10T10:34:17.148Z,100665.77
2018-11-10T10:36:45.530Z,100666.50
2018-11-10T10:39:14.017Z,100667.57
2018-11-10T10:41:42.455Z,100656.75
2018-11-10T10:44:11.292Z,100665.14
2018-11-10T10:46:39.715Z,100669.58
2018-11-10T10:49:08.202Z,100657.39
2018-11-10T10:51:36.737Z,100648.12
2018-11-10T10:54:05.389Z,100634.25
2018-11-10T10:56:33.833Z,100623.55
2018-11-10T10:59:02.430Z,100611.38
2018-11-10T11:01:35.980Z,100611.88
2018-11-10T11:04:09.773Z,100614.73
2018-11-10T11:06:38.197Z,100621.95
2018-11-10T11:09:07.985Z,100616.48
2018-11-10T11:11:36.348Z,100610.37
2018-11-10T11:14:04.829Z,100610.48
2018-11-10T11:16:33.454Z,100610.88
2018-11-10T11:19:02.002Z,100604.89
2018-11-10T11:21:30.544Z,100595.32
2018-11-10T11:23:58.968Z,100586.72
2018-11-10T11:26:27.393Z,100587.90
2018-11-10T11:28:55.871Z,100582.73
2018-11-10T11:31:24.349Z,100581.36
2018-11-10T11:33:52.820Z,100584.41
2018-11-10T11:36:21.233Z,100586.30
2018-11-10T11:38:49.705Z,100580.95
2018-11-10T11:41:18.473Z,100580.97
2018-11-10T11:43:46.801Z,100596.33
2018-11-10T11:46:15.280Z,100591.40
2018-11-10T11:48:43.710Z,100587.11
2018-11-10T11:51:12.147Z,100576.91
2018-11-10T11:53:40.589Z,100573.76
2018-11-10T11:56:09.080Z,100568.30
2018-11-10T11:58:37.519Z,100569.20
2018-11-10T12:01:06.215Z,100567.41
2018-11-10T12:03:34.893Z,100553.52
2018-11-10T12:06:03.349Z,100548.48
2018-11-10T12:08:31.795Z,100547.98
2018-11-10T12:11:00.245Z,100553.09
2018-11-10T12:13:28.674Z,100553.50
2018-11-10T12:15:57.126Z,100550.95
2018-11-10T12:18:25.552Z,100559.67
2018-11-10T12:20:54.076Z,100570.49
2018-11-10T12:23:22.483Z,100566.39
2018-11-10T12:25:50.932Z,100566.63
2018-11-10T12:28:19.394Z,100565.28
2018-11-10T12:30:47.857Z,100570.56
2018-11-10T12:33:16.268Z,100566.35
2018-11-10T12:35:44.714Z,100565.39
2018-11-10T12:38:13.138Z,100562.06
2018-11-10T12:40:41.617Z,100570.67
2018-11-10T12:43:10.052Z,100564.88
2018-11-10T12:45:38.502Z,100559.41
2018-11-10T12:48:06.915Z,100553.34
2018-11-10T12:50:35.373Z,100529.39
2018-11-10T12:53:03.813Z,100541.80
2018-11-10T12:55:32.276Z,100547.36
2018-11-10T12:58:00.748Z,100556.08
2018-11-10T13:00:29.208Z,100555.47
2018-11-10T13:02:57.658Z,100547.47
2018-11-10T13:05:26.108Z,100540.03
2018-11-10T13:07:54.554Z,100534.16
2018-11-10T13:10:22.995Z,100540.67
2018-11-10T13:12:51.423Z,100535.59
2018-11-10T13:15:19.838Z,100537.48
2018-11-10T13:17:48.367Z,100529.70
2018-11-10T13:20:16.846Z,100522.16
2018-11-10T13:22:45.298Z,100523.30
2018-11-10T13:25:14.383Z,100524.79
2018-11-10T13:27:42.892Z,100531.95
2018-11-10T13:30:13.108Z,100529.22
2018-11-10T13:32:41.597Z,100531.12
2018-11-10T13:35:10.624Z,100535.41
2018-11-10T13:37:39.076Z,100526.08
2018-11-10T13:40:08.077Z,100522.05
2018-11-10T13:42:36.536Z,100517.77
2018-11-10T13:45:05.469Z,100516.94
2018-11-10T13:47:33.938Z,100517.65
2018-11-10T13:50:03.055Z,100520.27
2018-11-10T13:52:32.145Z,100524.36
2018-11-10T13:55:00.252Z,100517.84
2018-11-10T13:57:28.757Z,100520.14
2018-11-10T13:59:57.177Z,100521.21
2018-11-10T14:02:25.818Z,100527.81
2018-11-10T14:04:54.253Z,100533.69
2018-11-10T14:07:22.726Z,100528.33
2018-11-10T14:09:51.272Z,100530.95
2018-11-10T14:12:19.713Z,100528.52
2018-11-10T14:14:48.136Z,100519.79
2018-11-10T14:17:16.595Z,100516.22
2018-11-10T14:19:45.110Z,100521.49
2018-11-10T14:22:13.558Z,100527.79
2018-11-10T14:24:41.982Z,100522.33
2018-11-10T14:27:10.463Z,100522.63
2018-11-10T14:29:38.899Z,100532.09
2018-11-10T14:32:07.319Z,100537.05
2018-11-10T14:34:35.802Z,100538.91
2018-11-10T14:37:04.223Z,100538.41
2018-11-10T14:39:32.777Z,100538.08
2018-11-10T14:42:01.200Z,100536.41
2018-11-10T14:44:29.650Z,100541.99
2018-11-10T14:46:58.077Z,100537.59
2018-11-10T14:49:26.551Z,100542.94
2018-11-10T14:51:54.964Z,100549.77
2018-11-10T14:54:23.388Z,100551.55
2018-11-10T14:56:51.820Z,100551.14
2018-11-10T14:59:20.329Z,100556.91
2018-11-10T15:01:48.778Z,100562.07
2018-11-10T15:04:17.319Z,100565.75
2018-11-10T15:06:45.740Z,100564.61
2018-11-10T15:09:14.185Z,100569.13
2018-11-10T15:11:42.650Z,100569.02
2018-11-10T15:14:11.088Z,100567.34
2018-11-10T15:16:39.500Z,100571.22
2018-11-10T15:19:08.288Z,100565.34
2018-11-10T15:21:36.711Z,100564.28
2018-11-10T15:24:05.506Z,100566.28
2018-11-10T15:26:33.941Z,100559.23
2018-11-10T15:29:02.409Z,100565.14
2018-11-10T15:31:30.833Z,100552.97
2018-11-10T15:33:59.296Z,100551.38
2018-11-10T15:36:27.725Z,100547.17
2018-11-10T15:38:56.241Z,100547.09
2018-11-10T15:41:24.659Z,100549.29
2018-11-10T15:43:53.116Z,100570.41
2018-11-10T15:46:21.532Z,100574.93
2018-11-10T15:48:49.985Z,100578.27
2018-11-10T15:51:18.452Z,100571.33
2018-11-10T15:53:47.024Z,100572.08
2018-11-10T15:56:15.465Z,100561.77
2018-11-10T15:58:43.885Z,100556.19
2018-11-10T16:01:12.368Z,100543.06
2018-11-10T16:03:40.813Z,100560.81
2018-11-10T16:06:09.255Z,100568.36
2018-11-10T16:08:37.686Z,100558.39
2018-11-10T16:11:06.189Z,100563.85
2018-11-10T16:13:34.621Z,100567.27
2018-11-10T16:16:03.086Z,100550.13
2018-11-10T16:18:31.513Z,100554.22
2018-11-10T16:21:00.020Z,100552.33
2018-11-10T16:23:28.377Z,100555.89
2018-11-10T16:25:56.850Z,100564.00
2018-11-10T16:28:25.275Z,100565.03
2018-11-10T16:30:53.717Z,100568.70
2018-11-10T16:33:22.138Z,100575.95
2018-11-10T16:35:50.578Z,100575.87
2018-11-10T16:38:19.021Z,100580.89
2018-11-10T16:40:47.460Z,100579.94
2018-11-10T16:43:15.900Z,100571.97
2018-11-10T16:45:44.356Z,100569.13
2018-11-10T16:48:12.769Z,100564.50
2018-11-10T16:50:41.193Z,100559.46
2018-11-10T16:53:09.643Z,100559.98
2018-11-10T16:55:38.084Z,100567.77
2018-11-10T16:58:07.004Z,100565.38
2018-11-10T17:00:35.484Z,100562.41
2018-11-10T17:03:03.937Z,100550.66
2018-11-10T17:05:32.394Z,100541.93
2018-11-10T17:08:00.827Z,100541.82
2018-11-10T17:10:29.273Z,100547.81
2018-11-10T17:12:57.681Z,100544.13
2018-11-10T17:15:26.158Z,100552.55
2018-11-10T17:17:54.565Z,100549.82
2018-11-10T17:20:23.016Z,100554.64
2018-11-10T17:22:51.428Z,100549.82
2018-11-10T17:25:19.879Z,100537.31
2018-11-10T17:27:48.299Z,100537.61
2018-11-10T17:30:19.375Z,100536.89
2018-11-10T17:32:47.763Z,100556.95
2018-11-10T17:35:16.264Z,100554.34
2018-11-10T17:37:45.066Z,100542.34
2018-11-10T17:40:14.351Z,100546.33
2018-11-10T17:42:42.763Z,100549.82
2018-11-10T17:45:13.503Z,100553.27
2018-11-10T17:47:42.435Z,100553.58
2018-11-10T17:50:12.352Z,100547.59
2018-11-10T17:52:41.295Z,100551.19
2018-11-10T17:55:11.098Z,100547.51
2018-11-10T17:57:39.984Z,100548.87
2018-11-10T18:00:08.408Z,100550.96
2018-11-10T18:02:36.884Z,100546.14
2018-11-10T18:05:06.454Z,100550.84
2018-11-10T18:07:34.901Z,100541.93
2018-11-10T18:10:03.379Z,100542.35
2018-11-10T18:12:31.849Z,100535.22
2018-11-10T18:15:00.276Z,100533.02
2018-11-10T18:17:28.729Z,100536.58
2018-11-10T18:19:57.150Z,100536.89
2018-11-10T18:22:25.583Z,100534.80
2018-11-10T18:24:54.312Z,100531.31
2018-11-10T18:27:22.782Z,100540.23
2018-11-10T18:29:51.195Z,100531.61
2018-11-10T18:32:19.648Z,100535.59
2018-11-10T18:34:48.102Z,100546.52
2018-11-10T18:37:16.556Z,100550.61
2018-11-10T18:39:45.112Z,100539.90
2018-11-10T18:42:13.580Z,100549.47
2018-11-10T18:44:42.024Z,100553.11
2018-11-10T18:47:10.481Z,100548.59
2018-11-10T18:49:38.937Z,100552.58
2018-11-10T18:52:07.415Z,100547.22
2018-11-10T18:54:35.859Z,100542.59
2018-11-10T18:57:04.337Z,100534.48
2018-11-10T18:59:32.769Z,100529.20
2018-11-10T19:02:01.205Z,100530.04
2018-11-10T19:04:29.675Z,100518.27
2018-11-10T19:06:59.937Z,100527.11
2018-11-10T19:09:28.394Z,100529.20
2018-11-10T19:11:56.822Z,100541.42
2018-11-10T19:14:25.269Z,100540.14
2018-11-10T19:16:53.709Z,100535.08
2018-11-10T19:19:22.180Z,100523.49
2018-11-10T19:21:50.605Z,100529.59
2018-11-10T19:24:19.086Z,100528.23
2018-11-10T19:26:47.492Z,100524.96
2018-11-10T19:29:15.975Z,100523.49
2018-11-10T19:31:44.428Z,100541.61
2018-11-10T19:34:12.901Z,100546.31
2018-11-10T19:36:41.321Z,100549.45
2018-11-10T19:39:10.905Z,100556.83
2018-11-10T19:41:39.359Z,100555.56
2018-11-10T19:44:08.324Z,100565.55
2018-11-10T19:46:36.746Z,100564.30
2018-11-10T19:49:05.513Z,100556.81
2018-11-10T19:51:34.194Z,100555.32
2018-11-10T19:54:02.444Z,100543.98
2018-11-10T19:56:30.893Z,100541.24
2018-11-10T19:58:59.335Z,100542.84
2018-11-10T20:01:27.782Z,100531.69
2018-11-10T20:03:56.225Z,100509.22
2018-11-10T20:06:24.644Z,100533.84
2018-11-10T20:08:53.067Z,100531.75
2018-11-10T20:11:21.505Z,100532.59
2018-11-10T20:13:50.052Z,100532.71
2018-11-10T20:16:18.395Z,100528.08
2018-11-10T20:18:46.871Z,100525.24
2018-11-10T20:21:15.292Z,100533.86
2018-11-10T20:23:43.763Z,100539.25
2018-11-10T20:26:12.196Z,100542.52
2018-11-10T20:28:40.602Z,100551.73
2018-11-10T20:31:09.059Z,100542.17
2018-11-10T20:33:38.100Z,100542.05
2018-11-10T20:36:06.546Z,100543.00
2018-11-10T20:38:34.990Z,100550.90
2018-11-10T20:41:03.439Z,100554.36
2018-11-10T20:43:31.868Z,100558.45
2018-11-10T20:46:00.312Z,100558.26
2018-11-10T20:48:28.769Z,100559.94
2018-11-10T20:50:57.245Z,100563.19
2018-11-10T20:53:25.766Z,100556.88
2018-11-10T20:55:54.230Z,100563.06
2018-11-10T20:58:22.651Z,100561.39
2018-11-10T21:00:51.101Z,100571.98
2018-11-10T21:03:19.555Z,100565.25
2018-11-10T21:05:48.060Z,100568.59
2018-11-10T21:08:16.475Z,100561.97
2018-11-10T21:10:44.939Z,100558.83
2018-11-10T21:13:13.371Z,100558.17
2018-11-10T21:15:41.832Z,100550.79
2018-11-10T21:18:10.247Z,100555.95
2018-11-10T21:20:38.692Z,100550.08
2018-11-10T21:23:07.128Z,100542.30
2018-11-10T21:25:35.593Z,100543.85
2018-11-10T21:28:04.013Z,100541.12
2018-11-10T21:30:32.492Z,100532.41
2018-11-10T21:33:00.933Z,100532.08
2018-11-10T21:35:29.461Z,100539.14
2018-11-10T21:37:57.819Z,100535.05
2018-11-10T21:40:26.275Z,100535.02
2018-11-10T21:42:54.674Z,100522.38
2018-11-10T21:45:23.141Z,100527.14
2018-11-10T21:47:51.568Z,100531.95
2018-11-10T21:50:20.692Z,100535.93
2018-11-10T21:52:49.148Z,100526.29
2018-11-10T21:55:18.986Z,100525.93
2018-11-10T21:57:48.050Z,100524.53
2018-11-10T22:00:18.152Z,100516.87
2018-11-10T22:02:47.013Z,100525.91
2018-11-10T22:05:15.549Z,100515.73
2018-11-10T22:07:43.983Z,100517.50
2018-11-10T22:10:14.888Z,100516.00
2018-11-10T22:12:43.554Z,100513.27
2018-11-10T22:15:14.469Z,100515.37
2018-11-10T22:17:43.831Z,100510.33
2018-11-10T22:20:13.904Z,100510.03
2018-11-10T22:22:42.417Z,100513.95
2018-11-10T22:25:11.599Z,100518.66
2018-11-10T22:27:41.525Z,100519.30
2018-11-10T22:30:11.939Z,100527.17
2018-11-10T22:32:40.570Z,100536.34
2018-11-10T22:35:09.592Z,100534.13
2018-11-10T22:37:38.249Z,100532.03
2018-11-10T22:40:08.403Z,100527.07
2018-11-10T22:42:37.756Z,100529.05
2018-11-10T22:45:06.946Z,100528.84
2018-11-10T22:47:35.382Z,100518.51
2018-11-10T22:50:04.085Z,100519.47
2018-11-10T22:52:32.523Z,100521.27
2018-11-10T22:55:00.940Z,100514.53
2018-11-10T22:57:29.374Z,100522.84
2018-11-10T22:59:57.808Z,100523.88
2018-11-10T23:02:26.278Z,100517.27
2018-11-10T23:04:54.685Z,100508.53
2018-11-10T23:07:23.134Z,100506.09
2018-11-10T23:09:51.538Z,100501.92
2018-11-10T23:12:20.016Z,100490.59
2018-11-10T23:14:48.440Z,100503.06
2018-11-10T23:17:16.970Z,100505.70
2018-11-10T23:19:45.339Z,100510.33
2018-11-10T23:22:13.791Z,100505.63
2018-11-10T23:24:42.213Z,100503.50
2018-11-10T23:27:10.648Z,100498.45
2018-11-10T23:29:39.093Z,100508.66
2018-11-10T23:32:07.573Z,100512.44
2018-11-10T23:34:36.034Z,100507.80
2018-11-10T23:37:04.458Z,100508.00
2018-11-10T23:39:32.911Z,100514.97
2018-11-10T23:42:01.360Z,100516.77
2018-11-10T23:44:29.805Z,100504.03
2018-11-10T23:46:58.225Z,100511.91
2018-11-10T23:49:26.669Z,100507.30
2018-11-10T23:51:55.097Z,100506.79
2018-11-10T23:54:23.512Z,100507.53
2018-11-10T23:56:51.945Z,100504.45
2018-11-10T23:59:20.391Z,100502.36
